Warner Robins, GA (31088)

11:21 AM EST on February 10, 2016 (GMT -0500)
King's Crossing | | Change Station
CLOSE
Current Station
Personal Weather Station
Location: Bonaire, GA
Elevation: 374 ft
Nearby Weather Stations

Elev 374 ft 32.56 °N, 83.61 °W | Updated 42 seconds ago

Clear
Clear
34.7 °F
Feels Like 35 °F
N
2.7
Wind Variable Wind from NW
Gusts 4.9 mph

Today
High -- | Low -- °F
--% Chance of Precip.
Yesterday
High -- | Low -- °F
Precip. -- in
Pressure 30.21 in
Visibility 10.0 miles
Clouds Clear
Windchill 35 °F
Dew Point 6 °F
Humidity 30%
Rainfall 0.00 in
Snow Depth Not available.
7:22 AM 6:15 PM
Waxing Crescent, 6% visible
METAR KWRB 101558Z AUTO 31018G22KT 10SM CLR 01/M12 A3019 RMK AO2 SLP228 T00131121
Pressure 30.21 in
Visibility 10.0 miles
Clouds Clear
Windchill 35 °F
Dew Point 6 °F
Humidity 30%
Rainfall 0.00 in
Snow Depth Not available.
7:22 AM 6:15 PM
Waxing Crescent, 6% visible
METAR KWRB 101558Z AUTO 31018G22KT 10SM CLR 01/M12 A3019 RMK AO2 SLP228 T00131121

10-Day Weather Forecast

Almanac

Astronomy

Feb. 10, 2016 Rise Set
Actual Time
Civil Twilight
Nautical Twilight
Astronomical Twilight
Moon
Length of Visible Light
Length of Day
Tomorrow will be .
, % of the Moon is Illuminated

Today's Extremes

State Highs State Lows

Community

WunderPhotos

Upload Photos

1,891,881 photos uploaded!

WunderBlog® & News

Nearby

Air Quality

  Air Quality AQ Index Pollutant
Not available.

Snow Depth

Station Depth Elevation

Earthquake Activity

City Distance Mag. Time & Date
Minimum magnitude displayed is 2.5.

Coastal Water Temperatures

Place Temperature

Stations

Nearby Weather Stations

Station Location Temp. Windchill Dew Point Humidity Wind Precip. Elev Updated Type
                   

Watches & Warnings

There are currently no watches in effect.